Time;durP1;ratioP1;P1;durP2;ratioP2;P2;SDS_P1;SDS_P2;PMS_P1;PMS_P2;Temp;Humidity;BMP_temperature;BMP_pressure;BME280_temperature;BME280_humidity;BME280_pressure;Samples;Min_cycle;Max_cycle;Signal;HPM_P1;HPM_P2
2023/08/10 00:02:12;;;;;;;1.15;0.90;;;15.90;99.90;;;;;;5078221;28;20039;-77
2023/08/10 00:04:38;;;;;;;6.63;0.70;;;15.90;99.90;;;;;;5058608;28;20079;-78
2023/08/10 00:07:04;;;;;;;1.45;1.00;;;15.80;99.90;;;;;;5077081;28;20135;-77
2023/08/10 00:09:30;;;;;;;3.05;0.90;;;15.70;99.90;;;;;;5081712;28;20731;-78
2023/08/10 00:11:56;;;;;;;1.70;1.00;;;15.70;99.90;;;;;;5081132;28;20027;-77
2023/08/10 00:14:21;;;;;;;1.02;0.88;;;15.70;99.90;;;;;;5080482;27;20051;-77
2023/08/10 00:16:47;;;;;;;1.08;0.98;;;15.50;99.90;;;;;;5080889;28;20100;-77
2023/08/10 00:19:13;;;;;;;2.50;0.90;;;15.50;99.90;;;;;;5078450;27;20102;-78
2023/08/10 00:21:38;;;;;;;4.78;1.00;;;15.50;99.90;;;;;;5049944;28;20039;-77
2023/08/10 00:24:04;;;;;;;1.35;0.85;;;15.40;99.90;;;;;;5052561;28;20043;-78
2023/08/10 00:26:30;;;;;;;6.70;1.10;;;15.40;99.90;;;;;;5069775;27;20062;-78
2023/08/10 00:28:56;;;;;;;1.20;1.00;;;15.30;99.90;;;;;;5082970;27;20062;-78
2023/08/10 00:31:22;;;;;;;2.55;1.17;;;15.30;99.90;;;;;;5069160;28;20123;-77
2023/08/10 00:33:47;;;;;;;1.48;0.85;;;15.30;99.90;;;;;;5087109;28;20032;-77
2023/08/10 00:36:13;;;;;;;1.35;0.90;;;15.30;99.90;;;;;;5086209;27;20031;-77
2023/08/10 00:38:40;;;;;;;2.88;1.00;;;15.20;99.90;;;;;;5089390;28;20070;-78
2023/08/10 00:41:05;;;;;;;1.45;0.93;;;15.20;99.90;;;;;;5064738;28;20059;-78
2023/08/10 00:43:32;;;;;;;2.38;0.90;;;15.20;99.90;;;;;;5081487;28;20042;-78
2023/08/10 00:45:59;;;;;;;2.30;1.15;;;15.20;99.90;;;;;;5072828;28;20085;-78
2023/08/10 00:48:25;;;;;;;1.85;1.00;;;15.20;99.90;;;;;;5073617;28;20522;-77
2023/08/10 00:50:52;;;;;;;2.08;0.95;;;15.20;99.90;;;;;;5079591;27;20035;-78
2023/08/10 00:53:18;;;;;;;2.72;0.70;;;15.20;99.90;;;;;;5077155;28;20020;-78
2023/08/10 00:55:51;;;;;;;1.42;1.15;;;15.10;99.90;;;;;;5082893;28;20617;-78
2023/08/10 00:58:19;;;;;;;3.70;1.08;;;15.00;99.90;;;;;;5085545;28;20207;-77
2023/08/10 01:00:45;;;;;;;3.33;1.00;;;15.00;99.90;;;;;;5090547;28;20044;-78
2023/08/10 01:03:11;;;;;;;1.13;0.85;;;14.90;99.90;;;;;;5081844;28;20114;-77
2023/08/10 01:06:01;;;;;;;3.92;0.98;;;14.90;99.90;;;;;;5074481;28;21949;-77
2023/08/10 01:08:43;;;;;;;2.55;1.25;;;14.90;99.90;;;;;;5065786;28;20039;-78
2023/08/10 01:11:19;;;;;;;2.28;1.05;;;14.80;99.90;;;;;;5080913;27;20135;-78
2023/08/10 01:14:00;;;;;;;1.60;0.73;;;14.80;99.90;;;;;;5075449;28;20036;-78
2023/08/10 01:16:27;;;;;;;4.97;1.00;;;14.70;99.90;;;;;;5078664;28;20036;-78
2023/08/10 01:18:53;;;;;;;2.40;0.88;;;14.70;99.90;;;;;;5080136;28;20035;-77
2023/08/10 01:21:49;;;;;;;1.88;1.13;;;14.70;99.90;;;;;;5084942;28;20037;-78
2023/08/10 01:24:25;;;;;;;2.30;1.10;;;14.60;99.90;;;;;;5069601;28;20028;-77
2023/08/10 01:26:53;;;;;;;4.72;1.35;;;14.70;99.90;;;;;;5090125;28;20039;-77
2023/08/10 01:29:19;;;;;;;1.90;0.90;;;14.70;99.90;;;;;;5082972;28;20862;-78
2023/08/10 01:31:46;;;;;;;1.15;0.93;;;14.70;99.90;;;;;;5088832;28;20458;-78
2023/08/10 01:34:11;;;;;;;3.60;0.70;;;14.70;99.90;;;;;;5085909;28;20634;-78
2023/08/10 01:36:37;;;;;;;1.80;0.90;;;14.60;99.90;;;;;;5087084;28;20024;-78
2023/08/10 01:39:03;;;;;;;5.35;1.35;;;14.60;99.90;;;;;;5081825;28;20032;-78
2023/08/10 01:41:28;;;;;;;5.55;1.10;;;14.50;99.90;;;;;;5081707;28;20188;-78
2023/08/10 01:43:54;;;;;;;2.60;1.05;;;14.50;99.90;;;;;;5088787;28;20918;-78
2023/08/10 01:46:23;;;;;;;3.08;1.00;;;14.50;99.90;;;;;;5080432;28;20050;-77
2023/08/10 01:48:52;;;;;;;1.55;0.88;;;14.40;99.90;;;;;;5083182;28;20036;-78
2023/08/10 01:51:22;;;;;;;2.28;1.00;;;14.30;99.90;;;;;;5087784;28;20035;-78
2023/08/10 01:53:50;;;;;;;3.10;1.00;;;14.30;99.90;;;;;;5067724;28;20028;-78
2023/08/10 01:56:18;;;;;;;2.70;0.75;;;14.30;99.90;;;;;;5079684;28;20036;-77
2023/08/10 01:58:43;;;;;;;1.60;1.23;;;14.30;99.90;;;;;;5067166;28;20142;-77
2023/08/10 02:01:09;;;;;;;11.20;1.65;;;14.20;99.90;;;;;;5085084;28;20042;-78
2023/08/10 02:03:35;;;;;;;3.38;1.30;;;14.20;99.90;;;;;;5087201;28;20747;-78
2023/08/10 02:06:00;;;;;;;1.23;1.13;;;14.20;99.90;;;;;;5080508;28;20071;-76
2023/08/10 02:08:26;;;;;;;1.30;1.00;;;14.20;99.90;;;;;;5088783;28;20039;-78
2023/08/10 02:10:51;;;;;;;2.25;1.27;;;14.30;99.90;;;;;;5052734;28;20130;-77
2023/08/10 02:13:17;;;;;;;1.27;0.90;;;14.30;99.90;;;;;;5085041;28;20081;-76
2023/08/10 02:15:43;;;;;;;2.35;0.90;;;14.20;99.90;;;;;;5059754;28;20036;-76
2023/08/10 02:18:12;;;;;;;1.65;0.70;;;14.20;99.90;;;;;;5088944;28;20123;-77
2023/08/10 02:20:38;;;;;;;1.65;1.08;;;14.10;99.90;;;;;;5087443;28;20031;-77
2023/08/10 02:23:04;;;;;;;1.90;1.00;;;14.10;99.90;;;;;;5091574;28;20028;-77
2023/08/10 02:25:29;;;;;;;0.77;0.73;;;14.10;99.90;;;;;;5084207;28;20480;-77
2023/08/10 02:27:55;;;;;;;0.70;0.70;;;14.00;99.90;;;;;;5067486;28;20050;-78
2023/08/10 02:30:21;;;;;;;2.00;0.80;;;14.00;99.90;;;;;;5065332;27;20039;-78
2023/08/10 02:32:46;;;;;;;3.75;1.13;;;13.90;99.90;;;;;;5092095;28;20023;-77
2023/08/10 02:35:13;;;;;;;6.03;1.13;;;13.90;99.90;;;;;;5086784;28;20472;-78
2023/08/10 02:37:39;;;;;;;1.30;1.13;;;13.80;99.90;;;;;;5065357;28;20030;-76
2023/08/10 02:40:15;;;;;;;1.30;0.90;;;13.70;99.90;;;;;;5076967;27;21250;-77
2023/08/10 02:42:42;;;;;;;1.00;0.95;;;13.70;99.90;;;;;;5089308;28;20031;-78
2023/08/10 02:45:08;;;;;;;3.60;0.80;;;13.80;99.90;;;;;;5085466;28;20035;-78
2023/08/10 02:47:34;;;;;;;1.83;1.13;;;13.80;99.90;;;;;;5089684;28;20028;-78
2023/08/10 02:50:01;;;;;;;1.15;1.05;;;13.90;99.90;;;;;;5091697;28;20115;-77
2023/08/10 02:52:27;;;;;;;2.25;1.30;;;13.80;99.90;;;;;;5093215;28;20028;-78
2023/08/10 02:54:52;;;;;;;1.77;0.95;;;13.80;99.90;;;;;;5089249;27;20020;-77
2023/08/10 02:57:18;;;;;;;14.10;1.25;;;13.80;99.90;;;;;;5096323;28;20361;-77
2023/08/10 02:59:44;;;;;;;4.30;0.95;;;13.80;99.90;;;;;;5093085;28;20070;-78
2023/08/10 03:02:09;;;;;;;1.73;1.13;;;13.70;99.90;;;;;;5094696;28;20096;-77
2023/08/10 03:04:35;;;;;;;1.00;1.00;;;13.60;99.90;;;;;;5086672;28;20043;-78
2023/08/10 03:07:01;;;;;;;1.30;1.20;;;13.50;99.90;;;;;;5084566;27;20051;-78
2023/08/10 03:09:27;;;;;;;5.38;0.90;;;13.50;99.90;;;;;;5058031;28;20032;-78
2023/08/10 03:11:53;;;;;;;2.55;0.80;;;13.40;99.90;;;;;;5084242;28;20134;-78
2023/08/10 03:14:18;;;;;;;4.07;0.82;;;13.30;99.90;;;;;;5086991;28;20054;-78
2023/08/10 03:16:44;;;;;;;6.38;1.02;;;13.30;99.90;;;;;;5083558;27;20131;-78
2023/08/10 03:19:10;;;;;;;2.95;1.00;;;13.30;99.90;;;;;;5084135;28;20061;-78
2023/08/10 03:21:35;;;;;;;7.18;1.20;;;13.20;99.90;;;;;;5056865;28;20422;-78
2023/08/10 03:24:02;;;;;;;15.18;1.40;;;13.20;99.90;;;;;;5090053;28;20310;-78
2023/08/10 03:26:27;;;;;;;7.63;1.15;;;13.20;99.90;;;;;;5091841;28;20032;-77
2023/08/10 03:28:53;;;;;;;1.70;1.17;;;13.10;99.90;;;;;;5084084;28;20023;-78
2023/08/10 03:31:18;;;;;;;5.70;1.20;;;13.20;99.90;;;;;;5075002;28;20103;-78
2023/08/10 03:33:44;;;;;;;1.33;1.23;;;13.20;99.90;;;;;;5090150;28;20024;-78
2023/08/10 03:36:10;;;;;;;3.15;1.23;;;13.20;99.90;;;;;;5082112;28;20031;-78
2023/08/10 03:38:35;;;;;;;11.50;1.10;;;13.30;99.90;;;;;;5065742;28;20027;-77
2023/08/10 03:41:01;;;;;;;8.13;0.70;;;13.30;99.90;;;;;;5088376;28;20146;-77
2023/08/10 03:43:27;;;;;;;3.08;1.00;;;13.20;99.90;;;;;;5092266;28;20025;-78
2023/08/10 03:45:52;;;;;;;3.47;1.10;;;13.10;99.90;;;;;;5089882;27;20036;-77
2023/08/10 03:48:18;;;;;;;2.80;1.42;;;13.10;99.90;;;;;;5084128;28;20480;-78
2023/08/10 03:50:44;;;;;;;2.90;1.00;;;13.10;99.90;;;;;;5084913;28;20515;-78
2023/08/10 03:53:10;;;;;;;2.85;1.25;;;13.10;99.90;;;;;;5074293;27;20451;-78
2023/08/10 03:55:36;;;;;;;1.00;0.90;;;13.10;99.90;;;;;;5089308;28;20035;-78
2023/08/10 03:58:01;;;;;;;3.40;0.80;;;13.10;99.90;;;;;;5087550;28;20024;-77
2023/08/10 04:00:27;;;;;;;3.00;0.88;;;13.10;99.90;;;;;;5077799;28;20127;-78
2023/08/10 04:02:53;;;;;;;1.42;0.77;;;13.10;99.90;;;;;;5090282;28;20107;-78
2023/08/10 04:05:19;;;;;;;3.40;1.05;;;13.20;99.90;;;;;;5082849;28;20083;-77
2023/08/10 04:07:45;;;;;;;1.35;0.70;;;13.20;99.90;;;;;;5086356;28;20024;-78
2023/08/10 04:10:11;;;;;;;0.60;0.60;;;13.20;99.90;;;;;;5069612;28;20725;-78
2023/08/10 04:12:37;;;;;;;1.15;0.80;;;13.20;99.90;;;;;;5091571;28;20044;-78
2023/08/10 04:15:06;;;;;;;1.45;0.70;;;13.20;99.90;;;;;;5084478;27;20484;-77
2023/08/10 04:17:32;;;;;;;0.70;0.70;;;13.20;99.90;;;;;;5089381;28;20035;-76
2023/08/10 04:19:58;;;;;;;0.82;0.75;;;13.20;99.90;;;;;;5084535;28;20031;-77
2023/08/10 04:22:23;;;;;;;3.35;0.90;;;13.20;99.90;;;;;;5072911;28;20527;-78
2023/08/10 04:24:50;;;;;;;0.50;0.50;;;13.20;99.90;;;;;;5083525;28;20036;-78
2023/08/10 04:27:16;;;;;;;1.55;0.70;;;13.20;99.90;;;;;;5068960;28;20717;-76
2023/08/10 04:29:46;;;;;;;4.97;0.82;;;13.30;99.90;;;;;;5086070;27;20062;-76
2023/08/10 04:32:12;;;;;;;4.72;0.90;;;13.30;99.90;;;;;;5082250;28;20111;-75
2023/08/10 04:34:39;;;;;;;2.05;1.23;;;13.50;99.90;;;;;;5067125;28;20174;-75
2023/08/10 04:37:05;;;;;;;3.65;1.10;;;13.60;99.90;;;;;;5085127;28;20098;-75
2023/08/10 04:39:32;;;;;;;1.08;0.90;;;13.70;99.90;;;;;;5076023;28;20035;-76
2023/08/10 04:41:58;;;;;;;2.92;0.98;;;13.80;99.90;;;;;;5068665;28;20149;-75
2023/08/10 04:44:24;;;;;;;1.48;0.80;;;14.00;99.90;;;;;;5069453;28;20062;-76
2023/08/10 04:46:50;;;;;;;2.58;1.02;;;14.10;99.90;;;;;;5088512;28;20067;-76
2023/08/10 04:49:15;;;;;;;1.13;1.00;;;14.20;99.90;;;;;;5086818;28;20448;-75
2023/08/10 04:51:41;;;;;;;2.03;1.25;;;14.30;99.90;;;;;;5092026;27;20036;-76
2023/08/10 04:54:08;;;;;;;5.65;1.05;;;14.40;99.90;;;;;;5068381;28;20036;-76
2023/08/10 04:56:35;;;;;;;1.20;1.08;;;14.50;99.90;;;;;;5079908;28;20056;-76
2023/08/10 04:59:02;;;;;;;1.17;0.88;;;14.60;99.90;;;;;;5086083;28;20019;-76
2023/08/10 05:01:28;;;;;;;4.90;1.10;;;14.70;99.90;;;;;;5088168;28;20031;-76
2023/08/10 05:03:54;;;;;;;1.35;0.82;;;14.90;99.90;;;;;;5083472;28;20031;-75
2023/08/10 05:06:20;;;;;;;0.75;0.75;;;15.00;99.90;;;;;;5082200;28;20052;-76
2023/08/10 05:08:45;;;;;;;2.17;1.17;;;15.10;99.90;;;;;;5084756;28;20024;-76
2023/08/10 05:11:11;;;;;;;1.77;1.00;;;15.20;99.90;;;;;;5087422;28;20804;-76
2023/08/10 05:13:36;;;;;;;3.13;1.05;;;15.30;99.90;;;;;;5085758;28;20034;-76
2023/08/10 05:16:03;;;;;;;3.67;1.10;;;15.40;99.90;;;;;;5091565;28;20032;-76
2023/08/10 05:18:29;;;;;;;1.45;0.95;;;15.50;99.90;;;;;;5084282;28;20128;-76
2023/08/10 05:20:59;;;;;;;1.50;0.80;;;15.70;99.90;;;;;;5088410;28;20040;-74
2023/08/10 05:23:24;;;;;;;1.58;0.68;;;15.80;99.90;;;;;;5078427;28;20122;-75
2023/08/10 05:25:50;;;;;;;2.17;0.80;;;15.90;99.90;;;;;;5061822;28;20050;-75
2023/08/10 05:28:16;;;;;;;1.27;1.00;;;16.00;99.90;;;;;;5079099;28;20035;-75
2023/08/10 05:30:42;;;;;;;1.50;0.90;;;16.10;99.90;;;;;;5080718;28;20040;-75
2023/08/10 05:33:07;;;;;;;3.40;0.77;;;16.30;99.90;;;;;;5084859;28;20028;-75
2023/08/10 05:35:33;;;;;;;1.13;0.90;;;16.50;99.90;;;;;;5083689;28;20028;-75
2023/08/10 05:37:59;;;;;;;0.80;0.80;;;16.60;99.90;;;;;;5067756;28;20572;-75
2023/08/10 05:40:25;;;;;;;0.85;0.82;;;16.70;99.90;;;;;;5083489;28;20108;-75
2023/08/10 05:42:51;;;;;;;2.67;1.40;;;16.80;99.90;;;;;;5081812;28;20492;-75
2023/08/10 05:45:19;;;;;;;2.05;0.80;;;16.90;99.90;;;;;;5071920;28;20051;-75
2023/08/10 05:47:45;;;;;;;1.13;0.90;;;17.00;99.90;;;;;;5085954;28;20032;-75
2023/08/10 05:50:15;;;;;;;2.60;1.02;;;17.20;99.90;;;;;;5085692;28;20142;-75
2023/08/10 05:52:42;;;;;;;0.95;0.93;;;17.20;99.90;;;;;;5082668;28;20032;-75
2023/08/10 05:55:08;;;;;;;4.00;1.00;;;17.30;99.90;;;;;;5074356;28;20047;-77
2023/08/10 05:57:34;;;;;;;6.13;1.73;;;17.30;99.90;;;;;;5078147;28;20024;-75
2023/08/10 06:00:00;;;;;;;2.35;0.82;;;17.40;99.90;;;;;;5090546;28;20059;-75
2023/08/10 06:02:26;;;;;;;2.83;1.08;;;17.60;99.90;;;;;;5065483;27;21563;-72
2023/08/10 06:04:52;;;;;;;1.10;1.00;;;17.80;99.90;;;;;;5074224;28;20492;-72
2023/08/10 06:07:18;;;;;;;3.13;0.95;;;17.90;99.90;;;;;;5075723;28;20032;-73
2023/08/10 06:09:44;;;;;;;1.90;1.08;;;18.00;99.90;;;;;;5070004;28;20042;-73
2023/08/10 06:12:10;;;;;;;2.67;0.85;;;18.00;99.90;;;;;;5074271;28;20130;-73
2023/08/10 06:14:37;;;;;;;4.28;1.20;;;18.20;99.90;;;;;;5085810;28;20020;-73
2023/08/10 06:17:04;;;;;;;1.10;0.80;;;18.30;99.90;;;;;;5085418;28;20028;-73
2023/08/10 06:19:31;;;;;;;1.70;1.02;;;18.40;99.90;;;;;;5066491;28;23243;-73
2023/08/10 06:21:57;;;;;;;4.53;1.40;;;18.50;99.90;;;;;;5086119;28;20027;-73
2023/08/10 06:24:23;;;;;;;1.48;0.82;;;18.50;99.90;;;;;;5083119;28;20031;-72
2023/08/10 06:26:49;;;;;;;1.90;1.00;;;18.60;99.90;;;;;;5091010;28;20522;-72
2023/08/10 06:29:15;;;;;;;2.95;1.17;;;18.60;99.90;;;;;;5091474;28;20028;-73
2023/08/10 06:31:41;;;;;;;3.42;1.00;;;18.70;99.90;;;;;;5082697;28;20525;-74
2023/08/10 06:34:06;;;;;;;1.02;0.90;;;18.80;99.90;;;;;;5085799;28;20125;-73
2023/08/10 06:36:33;;;;;;;1.00;0.90;;;18.90;99.90;;;;;;5080486;28;20065;-74
2023/08/10 06:38:59;;;;;;;1.80;0.80;;;19.00;99.90;;;;;;5089713;28;20489;-74
2023/08/10 06:41:25;;;;;;;1.75;0.80;;;19.10;99.90;;;;;;5058124;28;20054;-72
2023/08/10 06:43:50;;;;;;;2.25;1.08;;;19.20;99.90;;;;;;5088340;28;20040;-73
2023/08/10 06:46:16;;;;;;;1.08;0.98;;;19.20;99.90;;;;;;5083751;28;20047;-73
2023/08/10 06:48:42;;;;;;;1.98;0.85;;;19.30;99.90;;;;;;5083921;28;20035;-73
2023/08/10 06:51:07;;;;;;;0.93;0.80;;;19.40;99.90;;;;;;5085320;28;20035;-72
2023/08/10 06:53:33;;;;;;;1.00;0.80;;;19.50;99.90;;;;;;5080121;28;20051;-73
2023/08/10 06:55:59;;;;;;;0.80;0.80;;;19.50;99.90;;;;;;5074167;28;20737;-69
2023/08/10 06:58:25;;;;;;;4.32;0.90;;;19.50;99.90;;;;;;5061301;28;20057;-70
2023/08/10 07:00:51;;;;;;;8.07;1.00;;;19.50;99.90;;;;;;5071780;28;20024;-70
2023/08/10 07:03:16;;;;;;;0.80;0.70;;;19.40;99.90;;;;;;5071092;27;20918;-70
2023/08/10 07:05:43;;;;;;;3.67;0.90;;;19.50;99.90;;;;;;5071184;28;20125;-70
2023/08/10 07:08:09;;;;;;;2.25;0.60;;;19.50;99.90;;;;;;5077458;28;20024;-70
2023/08/10 07:10:38;;;;;;;3.38;1.02;;;19.60;99.90;;;;;;5079697;28;20639;-68
2023/08/10 07:13:04;;;;;;;0.70;0.70;;;19.70;99.90;;;;;;5081710;28;20426;-68
2023/08/10 07:15:33;;;;;;;2.83;0.80;;;19.80;99.90;;;;;;5080819;28;20738;-68
2023/08/10 07:17:59;;;;;;;0.95;0.80;;;19.90;99.90;;;;;;5082322;27;20139;-70
2023/08/10 07:20:25;;;;;;;1.17;0.75;;;20.00;99.90;;;;;;5067999;27;20035;-70
2023/08/10 07:22:51;;;;;;;0.98;0.70;;;20.10;99.90;;;;;;5076459;28;20615;-69
2023/08/10 07:25:18;;;;;;;1.33;0.80;;;20.20;99.90;;;;;;5083382;28;20150;-70
2023/08/10 07:27:46;;;;;;;1.88;0.80;;;20.30;99.90;;;;;;5077176;27;20024;-69
2023/08/10 07:30:15;;;;;;;1.23;0.95;;;20.50;99.90;;;;;;5069037;27;20228;-70
2023/08/10 07:32:42;;;;;;;1.00;0.70;;;20.60;99.90;;;;;;5034623;28;20097;-69
2023/08/10 07:35:09;;;;;;;0.93;0.52;;;20.60;99.90;;;;;;5065915;28;20102;-69
2023/08/10 07:37:35;;;;;;;1.08;0.55;;;20.50;99.90;;;;;;5072943;28;20032;-69
2023/08/10 07:40:02;;;;;;;2.47;0.57;;;20.50;99.90;;;;;;5071868;28;20028;-69
2023/08/10 07:42:28;;;;;;;1.73;0.68;;;20.60;99.90;;;;;;5067733;28;20040;-69
2023/08/10 07:44:54;;;;;;;1.85;0.93;;;20.60;99.90;;;;;;5073289;28;20460;-68
2023/08/10 07:47:20;;;;;;;1.10;0.50;;;20.60;99.90;;;;;;5079056;28;20032;-69
2023/08/10 07:49:45;;;;;;;2.40;0.88;;;20.60;99.90;;;;;;5057152;28;20036;-73
2023/08/10 07:52:11;;;;;;;1.60;0.80;;;20.50;99.90;;;;;;5088080;28;20067;-74
2023/08/10 07:54:37;;;;;;;0.63;0.63;;;20.40;99.90;;;;;;5085455;28;20547;-74
2023/08/10 07:57:03;;;;;;;0.73;0.73;;;20.30;99.90;;;;;;5069111;28;20031;-74
2023/08/10 07:59:29;;;;;;;5.63;0.82;;;20.40;99.90;;;;;;5076021;28;20039;-74
2023/08/10 08:01:55;;;;;;;3.33;0.90;;;20.50;99.90;;;;;;5051215;28;20028;-73
2023/08/10 08:04:20;;;;;;;1.15;0.90;;;20.50;99.90;;;;;;5083974;28;20088;-73
2023/08/10 08:06:46;;;;;;;1.67;0.90;;;20.50;99.90;;;;;;5060150;28;20051;-71
2023/08/10 08:09:12;;;;;;;1.00;0.80;;;20.50;99.90;;;;;;5085259;28;20031;-70
2023/08/10 08:11:38;;;;;;;6.20;0.93;;;20.50;99.90;;;;;;5076468;28;20028;-71
2023/08/10 08:14:04;;;;;;;1.70;0.90;;;20.50;99.90;;;;;;5079937;28;20153;-72
2023/08/10 08:16:31;;;;;;;1.15;1.00;;;20.60;99.90;;;;;;5068810;27;20058;-74
2023/08/10 08:18:56;;;;;;;0.50;0.50;;;20.70;99.90;;;;;;5072346;28;20051;-73
2023/08/10 08:21:24;;;;;;;0.80;0.75;;;20.60;99.90;;;;;;5075978;28;20032;-74
2023/08/10 08:23:51;;;;;;;1.02;0.73;;;20.50;99.90;;;;;;5054794;28;20411;-77
2023/08/10 08:26:18;;;;;;;1.60;0.80;;;20.50;99.90;;;;;;5055919;28;20073;-79
2023/08/10 08:28:45;;;;;;;1.02;0.80;;;20.50;99.90;;;;;;5052789;28;20751;-68
2023/08/10 08:31:11;;;;;;;0.60;0.60;;;20.70;99.90;;;;;;5076740;28;20019;-68
2023/08/10 08:33:37;;;;;;;0.88;0.55;;;20.80;99.90;;;;;;5058579;28;21362;-68
2023/08/10 08:36:03;;;;;;;0.88;0.63;;;20.90;99.90;;;;;;5057302;28;20039;-67
2023/08/10 08:38:30;;;;;;;0.82;0.60;;;21.00;99.90;;;;;;5057086;28;20961;-67
2023/08/10 08:40:56;;;;;;;1.00;0.60;;;21.10;99.90;;;;;;5070549;27;20788;-67
2023/08/10 08:43:22;;;;;;;0.60;0.60;;;21.10;99.90;;;;;;5058840;28;20042;-66
2023/08/10 08:45:48;;;;;;;0.55;0.55;;;21.10;99.90;;;;;;5070805;28;20042;-67
2023/08/10 08:48:15;;;;;;;0.60;0.60;;;21.10;99.90;;;;;;5051964;28;20032;-67
2023/08/10 08:50:43;;;;;;;0.50;0.50;;;21.20;99.90;;;;;;5060354;28;20883;-67
2023/08/10 08:53:10;;;;;;;0.93;0.60;;;21.30;99.90;;;;;;5080264;28;20040;-66
2023/08/10 08:55:37;;;;;;;0.65;0.57;;;21.40;99.90;;;;;;5069952;28;20085;-67
2023/08/10 08:58:03;;;;;;;0.80;0.80;;;21.40;99.90;;;;;;5076229;28;20024;-68
2023/08/10 09:00:31;;;;;;;0.70;0.70;;;21.50;99.90;;;;;;5079830;28;20034;-68
2023/08/10 09:02:57;;;;;;;0.60;0.50;;;21.50;99.90;;;;;;5075966;28;20023;-68
2023/08/10 09:05:23;;;;;;;0.90;0.80;;;21.50;99.90;;;;;;5078335;28;20095;-67
2023/08/10 09:07:50;;;;;;;0.68;0.60;;;21.60;99.90;;;;;;5072734;28;20027;-67
2023/08/10 09:10:17;;;;;;;2.55;0.68;;;21.70;99.90;;;;;;5056322;28;20035;-68
2023/08/10 09:12:42;;;;;;;0.38;0.38;;;21.80;99.90;;;;;;5080636;28;20027;-67
2023/08/10 09:15:11;;;;;;;0.75;0.60;;;21.90;99.90;;;;;;5082354;28;20028;-68
2023/08/10 09:17:44;;;;;;;1.17;0.70;;;21.80;99.90;;;;;;5059479;28;20051;-67
2023/08/10 09:20:16;;;;;;;1.23;0.55;;;21.80;99.90;;;;;;5074205;28;20039;-67
2023/08/10 09:22:42;;;;;;;;;;;21.80;99.90;;;;;;5078002;28;20128;-68
2023/08/10 09:25:08;;;;;;;0.30;0.30;;;21.70;99.90;;;;;;5064130;28;19927;-66
2023/08/10 09:27:34;;;;;;;0.55;0.50;;;21.60;99.90;;;;;;5059452;28;20397;-67
2023/08/10 09:30:05;;;;;;;0.60;0.50;;;21.50;99.90;;;;;;5069660;28;20035;-67
2023/08/10 09:32:32;;;;;;;0.40;0.40;;;21.50;99.90;;;;;;5066549;28;20024;-67
2023/08/10 09:34:58;;;;;;;0.77;0.70;;;21.40;99.90;;;;;;5025997;28;20496;-68
2023/08/10 09:37:25;;;;;;;0.80;0.47;;;21.40;99.90;;;;;;5050951;28;20582;-67
2023/08/10 09:39:55;;;;;;;0.77;0.55;;;21.30;99.90;;;;;;5072718;28;20032;-67
2023/08/10 09:42:21;;;;;;;0.77;0.70;;;21.10;99.90;;;;;;5072888;28;20074;-68
2023/08/10 09:44:49;;;;;;;0.50;0.50;;;21.10;99.90;;;;;;5077886;28;20534;-68
2023/08/10 09:47:16;;;;;;;0.75;0.60;;;21.20;99.90;;;;;;5072530;28;20023;-68
2023/08/10 09:50:05;;;;;;;0.65;0.65;;;21.30;99.90;;;;;;5079300;28;20081;-68
2023/08/10 09:52:32;;;;;;;1.15;0.50;;;21.10;99.90;;;;;;5084746;28;20028;-68
2023/08/10 09:54:58;;;;;;;1.40;0.40;;;21.00;99.90;;;;;;5079942;28;20038;-68
2023/08/10 09:57:25;;;;;;;0.40;0.40;;;21.00;99.90;;;;;;5083176;28;21051;-68
2023/08/10 09:59:51;;;;;;;0.73;0.70;;;21.00;99.90;;;;;;5063190;28;20032;-68
2023/08/10 10:02:20;;;;;;;1.05;0.70;;;21.00;99.90;;;;;;5080891;28;20023;-67
2023/08/10 10:04:46;;;;;;;2.28;0.57;;;20.90;99.90;;;;;;5066457;28;20036;-68
2023/08/10 10:07:12;;;;;;;0.77;0.60;;;20.80;99.90;;;;;;5084738;28;20560;-67
2023/08/10 10:09:43;;;;;;;2.33;0.60;;;20.90;99.90;;;;;;5072875;28;20055;-67
2023/08/10 10:12:15;;;;;;;1.40;0.60;;;21.10;99.90;;;;;;5075781;28;20035;-67
2023/08/10 10:14:45;;;;;;;0.60;0.60;;;21.30;99.90;;;;;;5078558;28;20089;-67
2023/08/10 10:17:16;;;;;;;0.93;0.65;;;21.50;99.90;;;;;;5068700;28;20027;-67
2023/08/10 10:19:43;;;;;;;0.40;0.30;;;21.70;99.90;;;;;;5078993;28;20047;-66
2023/08/10 10:22:10;;;;;;;1.02;0.70;;;21.80;99.90;;;;;;5077131;28;20509;-66
2023/08/10 10:24:40;;;;;;;2.17;0.60;;;21.90;99.90;;;;;;5081017;28;20024;-67
2023/08/10 10:27:10;;;;;;;3.22;0.70;;;21.90;99.90;;;;;;5080550;28;20032;-67
2023/08/10 10:29:37;;;;;;;1.63;0.57;;;22.10;99.90;;;;;;5072925;28;20027;-67
2023/08/10 10:32:11;;;;;;;0.50;0.50;;;22.10;99.90;;;;;;5073842;28;20072;-72
2023/08/10 10:34:38;;;;;;;1.67;0.90;;;22.00;99.90;;;;;;5074129;28;20030;-72
2023/08/10 10:37:14;;;;;;;1.65;1.30;;;22.10;99.90;;;;;;5079682;28;20657;-72
2023/08/10 10:39:42;;;;;;;15.10;3.80;;;22.10;99.90;;;;;;5081295;28;20054;-72
2023/08/10 10:42:10;;;;;;;5.90;3.50;;;22.10;99.90;;;;;;5086716;28;20047;-72
2023/08/10 10:45:22;;;;;;;1.58;1.00;;;22.20;99.90;;;;;;5085841;28;20034;-72
2023/08/10 10:47:49;;;;;;;0.65;0.50;;;22.40;99.90;;;;;;5021982;28;20042;-71
2023/08/10 10:50:19;;;;;;;0.77;0.52;;;22.60;99.90;;;;;;5023694;28;20509;-73
2023/08/10 10:53:04;;;;;;;0.45;0.40;;;22.70;99.90;;;;;;5053214;28;20832;-73
2023/08/10 10:55:41;;;;;;;0.50;0.50;;;22.80;99.90;;;;;;5076245;28;20068;-72
2023/08/10 10:58:08;;;;;;;0.70;0.55;;;22.90;99.90;;;;;;5085531;28;20036;-72
2023/08/10 11:00:36;;;;;;;0.65;0.55;;;22.90;99.90;;;;;;5076773;28;20024;-72
2023/08/10 11:03:04;;;;;;;0.45;0.45;;;23.00;99.90;;;;;;5068987;28;20899;-72
2023/08/10 11:05:29;;;;;;;10.65;0.90;;;23.10;99.90;;;;;;5067073;28;20035;-73
2023/08/10 11:07:56;;;;;;;2.67;0.50;;;23.10;99.90;;;;;;5079550;28;20097;-72
2023/08/10 11:10:22;;;;;;;0.80;0.50;;;23.10;99.90;;;;;;5076305;28;20064;-73
2023/08/10 11:12:49;;;;;;;1.85;0.80;;;23.10;99.90;;;;;;5084957;28;20119;-72
2023/08/10 11:15:16;;;;;;;0.60;0.32;;;23.20;99.90;;;;;;5078608;28;20043;-72
2023/08/10 11:17:46;;;;;;;0.50;0.50;;;23.20;99.90;;;;;;5084031;28;20027;-73
2023/08/10 11:20:15;;;;;;;3.13;0.57;;;23.30;99.90;;;;;;5081638;28;20023;-72
2023/08/10 11:22:45;;;;;;;0.40;0.40;;;23.40;99.90;;;;;;5080055;28;21126;-72
2023/08/10 11:25:19;;;;;;;3.55;0.70;;;23.40;99.30;;;;;;5077814;28;20070;-72
2023/08/10 11:27:48;;;;;;;0.30;0.30;;;23.40;99.00;;;;;;5082521;28;20055;-75
2023/08/10 11:30:16;;;;;;;0.45;0.40;;;23.30;99.80;;;;;;5082224;28;20750;-73
2023/08/10 11:32:45;;;;;;;4.03;0.50;;;23.40;99.90;;;;;;5080496;28;20564;-72
2023/08/10 11:35:12;;;;;;;0.60;0.60;;;23.50;99.90;;;;;;5082588;28;20024;-73
2023/08/10 11:37:39;;;;;;;0.85;0.77;;;23.50;98.80;;;;;;5080833;28;20089;-73
2023/08/10 11:40:13;;;;;;;0.47;0.45;;;23.60;99.90;;;;;;5081154;28;20027;-72
2023/08/10 11:42:44;;;;;;;0.75;0.60;;;23.70;99.90;;;;;;5076128;28;20712;-72
2023/08/10 11:45:11;;;;;;;1.75;0.70;;;23.80;99.60;;;;;;5066722;28;20032;-72
2023/08/10 11:47:42;;;;;;;0.40;0.40;;;23.80;99.30;;;;;;5077600;28;20035;-73
2023/08/10 11:50:09;;;;;;;0.55;0.55;;;23.90;98.30;;;;;;5085799;28;20038;-72
2023/08/10 11:52:35;;;;;;;1.15;0.47;;;23.80;99.10;;;;;;5083217;28;20050;-73
2023/08/10 11:55:10;;;;;;;0.77;0.60;;;23.80;98.80;;;;;;5083929;28;20066;-78
2023/08/10 11:57:36;;;;;;;0.80;0.50;;;23.70;97.20;;;;;;5084023;28;20508;-73
2023/08/10 12:00:33;;;;;;;0.50;0.50;;;23.70;98.60;;;;;;5075918;28;20288;-72
2023/08/10 12:03:14;;;;;;;0.68;0.65;;;23.70;97.60;;;;;;5080505;28;20030;-71
2023/08/10 12:05:49;;;;;;;0.70;0.70;;;23.70;99.80;;;;;;5071612;28;20381;-70
2023/08/10 12:08:23;;;;;;;0.57;0.57;;;23.80;99.40;;;;;;5080687;28;20062;-71
2023/08/10 12:10:58;;;;;;;0.60;0.60;;;23.80;99.50;;;;;;5086669;28;20038;-70
2023/08/10 12:13:23;;;;;;;0.55;0.50;;;23.90;98.60;;;;;;5087492;28;20110;-71
2023/08/10 12:15:51;;;;;;;1.67;0.70;;;23.90;98.40;;;;;;5084019;28;20046;-68
2023/08/10 12:18:20;;;;;;;0.80;0.80;;;23.90;99.40;;;;;;5081529;28;20067;-66
2023/08/10 12:20:48;;;;;;;1.20;0.70;;;23.90;99.50;;;;;;5083317;28;20036;-71
2023/08/10 12:23:14;;;;;;;1.88;0.63;;;23.90;98.00;;;;;;5087944;28;20621;-72
2023/08/10 12:25:41;;;;;;;0.77;0.60;;;23.90;99.90;;;;;;5082607;28;20049;-71
2023/08/10 12:28:07;;;;;;;1.00;0.57;;;24.00;99.90;;;;;;5085593;28;20102;-71
2023/08/10 12:30:34;;;;;;;1.25;0.73;;;24.10;99.80;;;;;;5085036;28;20043;-71
2023/08/10 12:33:01;;;;;;;0.98;0.88;;;24.10;96.10;;;;;;5085162;28;20015;-71
2023/08/10 12:35:27;;;;;;;2.92;1.00;;;24.10;96.10;;;;;;5085018;28;20147;-71
2023/08/10 12:37:52;;;;;;;1.02;0.60;;;24.10;95.50;;;;;;5083138;28;20750;-71
2023/08/10 12:40:18;;;;;;;1.23;0.70;;;24.00;94.60;;;;;;5092341;28;20031;-71
2023/08/10 12:42:45;;;;;;;0.57;0.50;;;23.90;96.70;;;;;;5084358;28;20051;-71
2023/08/10 12:45:11;;;;;;;0.63;0.63;;;24.00;96.60;;;;;;5091194;28;20078;-72
2023/08/10 12:47:39;;;;;;;1.75;0.73;;;24.00;95.10;;;;;;5085147;28;20062;-71
2023/08/10 12:50:15;;;;;;;0.73;0.73;;;24.00;94.30;;;;;;5064101;28;20016;-71